Time;durP1;ratioP1;P1;durP2;ratioP2;P2;SDS_P1;SDS_P2;PMS_P1;PMS_P2;Temp;Humidity;BMP_temperature;BMP_pressure;BME280_temperature;BME280_humidity;BME280_pressure;Samples;Min_cycle;Max_cycle;Signal;HPM_P1;HPM_P2
2022/09/30 00:00:46;;;;;;;13.25;8.40;;;;;;;9.31;100.00;100897.72;5031092;28;20022;-61
2022/09/30 00:03:11;;;;;;;10.52;7.60;;;;;;;9.37;100.00;100908.97;5030651;28;20502;-61
2022/09/30 00:05:37;;;;;;;12.65;7.95;;;;;;;9.39;100.00;100901.91;5030364;28;20051;-61
2022/09/30 00:08:02;;;;;;;10.32;7.57;;;;;;;9.44;100.00;100902.63;5030617;28;20025;-62
2022/09/30 00:10:28;;;;;;;9.77;7.95;;;;;;;9.47;100.00;100910.44;5028778;28;20043;-61
2022/09/30 00:12:53;;;;;;;11.75;8.38;;;;;;;9.49;100.00;100911.25;5030547;28;20112;-60
2022/09/30 00:15:19;;;;;;;14.25;7.97;;;;;;;9.50;100.00;100910.34;5028580;28;20388;-64
2022/09/30 00:17:44;;;;;;;10.25;8.15;;;;;;;9.52;100.00;100916.44;5030435;28;20032;-63
2022/09/30 00:20:09;;;;;;;9.93;8.00;;;;;;;9.54;100.00;100917.25;5030232;28;20029;-61
2022/09/30 00:22:35;;;;;;;11.65;7.85;;;;;;;9.58;100.00;100918.88;5030186;28;20085;-62
2022/09/30 00:25:00;;;;;;;11.50;7.75;;;;;;;9.57;100.00;100916.31;5030286;28;20025;-64
2022/09/30 00:27:26;;;;;;;12.80;8.60;;;;;;;9.55;100.00;100912.84;5029432;28;20033;-60
2022/09/30 00:29:51;;;;;;;12.18;7.43;;;;;;;9.55;100.00;100916.34;5028903;28;20021;-60
2022/09/30 00:32:16;;;;;;;9.95;8.00;;;;;;;9.57;100.00;100922.41;5030469;28;20057;-62
2022/09/30 00:34:42;;;;;;;10.55;7.90;;;;;;;9.63;100.00;100918.75;5030450;28;20026;-60
2022/09/30 00:37:07;;;;;;;12.98;8.13;;;;;;;9.66;100.00;100915.19;5030228;28;20036;-60
2022/09/30 00:39:34;;;;;;;12.32;7.57;;;;;;;9.67;100.00;100903.75;5030573;28;20032;-61
2022/09/30 00:42:01;;;;;;;9.38;6.63;;;;;;;9.66;100.00;100908.13;5031096;28;20071;-61
2022/09/30 00:44:49;;;;;;;9.88;7.10;;;;;;;9.60;100.00;100903.91;5031336;28;20079;-59
2022/09/30 00:47:27;;;;;;;12.48;7.78;;;;;;;9.59;100.00;100907.47;5029569;28;20076;-61
2022/09/30 00:49:54;;;;;;;8.38;7.05;;;;;;;9.53;100.00;100912.91;5030988;28;20026;-62
2022/09/30 00:52:20;;;;;;;8.70;6.85;;;;;;;9.47;100.00;100907.81;5028822;28;20068;-62
2022/09/30 00:54:45;;;;;;;11.63;7.30;;;;;;;9.40;100.00;100911.50;5028870;28;20033;-59
2022/09/30 00:57:10;;;;;;;8.48;7.32;;;;;;;9.32;100.00;100904.69;5027682;28;20538;-61
2022/09/30 00:59:46;;;;;;;9.48;7.25;;;;;;;9.25;100.00;100910.16;5059112;28;20034;-63
2022/09/30 01:02:13;;;;;;;11.75;7.80;;;;;;;9.16;100.00;100913.91;5026853;28;20029;-61
2022/09/30 01:04:38;;;;;;;10.00;7.95;;;;;;;9.06;100.00;100913.31;5027035;28;20033;-61
2022/09/30 01:07:05;;;;;;;13.40;8.10;;;;;;;9.00;100.00;100916.09;5026839;28;20032;-61
2022/09/30 01:09:32;;;;;;;9.75;7.55;;;;;;;8.92;100.00;100911.91;5029243;28;20161;-61
2022/09/30 01:11:58;;;;;;;9.77;6.85;;;;;;;8.86;100.00;100909.41;5027260;28;20034;-61
2022/09/30 01:14:26;;;;;;;12.35;8.48;;;;;;;8.80;100.00;100904.31;5029146;28;20032;-62
2022/09/30 01:17:09;;;;;;;8.07;7.25;;;;;;;8.75;100.00;100908.81;5029293;28;20057;-62
2022/09/30 01:20:02;;;;;;;12.15;7.97;;;;;;;8.74;100.00;100909.72;5027430;28;20034;-59
2022/09/30 01:22:45;;;;;;;11.70;7.95;;;;;;;8.69;100.00;100909.84;5028429;28;20040;-60
2022/09/30 01:25:14;;;;;;;12.73;7.60;;;;;;;8.61;100.00;100915.25;5028334;28;20029;-60
2022/09/30 01:28:04;;;;;;;11.32;8.25;;;;;;;8.57;100.00;100917.13;5029003;28;20030;-60
2022/09/30 01:31:02;;;;;;;10.50;7.45;;;;;;;8.57;100.00;100918.88;5027330;28;20460;-63
2022/09/30 01:33:44;;;;;;;13.15;7.82;;;;;;;8.49;100.00;100913.78;5029200;28;20032;-60
2022/09/30 01:36:28;;;;;;;15.43;7.90;;;;;;;8.44;100.00;100920.91;5008121;28;20096;-59
2022/09/30 01:39:27;;;;;;;11.73;8.15;;;;;;;8.38;100.00;100918.44;5008358;28;20034;-63
2022/09/30 01:42:12;;;;;;;8.65;7.22;;;;;;;8.31;100.00;100926.44;5007086;28;20034;-61
2022/09/30 01:45:20;;;;;;;10.65;7.60;;;;;;;8.32;100.00;100916.81;5006346;28;20156;-63
2022/09/30 01:47:50;;;;;;;13.32;8.23;;;;;;;8.35;100.00;100911.50;4988915;28;20052;-62
2022/09/30 01:50:42;;;;;;;14.25;8.70;;;;;;;8.36;100.00;100917.63;5013482;28;20112;-61
2022/09/30 01:53:18;;;;;;;16.10;7.97;;;;;;;8.33;100.00;100919.41;5027017;28;20603;-60
2022/09/30 01:55:52;;;;;;;9.70;7.20;;;;;;;8.31;100.00;100920.34;5025414;28;20163;-61
2022/09/30 01:58:18;;;;;;;9.25;7.38;;;;;;;8.27;100.00;100908.16;5027147;28;20030;-65
2022/09/30 02:00:48;;;;;;;10.55;7.90;;;;;;;8.25;100.00;100902.94;5028978;28;20033;-61
2022/09/30 02:03:21;;;;;;;11.52;8.02;;;;;;;8.28;100.00;100905.50;5060216;28;20457;-62
2022/09/30 02:05:57;;;;;;;10.40;7.50;;;;;;;8.29;100.00;100906.38;5026463;28;20022;-64
2022/09/30 02:08:50;;;;;;;12.20;8.43;;;;;;;8.30;100.00;100903.72;5015875;28;20021;-61
2022/09/30 02:11:25;;;;;;;10.90;8.18;;;;;;;8.28;100.00;100902.03;5036067;28;20069;-61
2022/09/30 02:14:11;;;;;;;14.40;8.32;;;;;;;8.27;100.00;100900.28;5027331;28;20434;-61
2022/09/30 02:16:41;;;;;;;14.35;8.57;;;;;;;8.24;100.00;100901.22;5013677;28;20435;-61
2022/09/30 02:19:12;;;;;;;13.98;8.30;;;;;;;8.18;100.00;100904.88;5006703;28;20034;-61
2022/09/30 02:21:39;;;;;;;11.85;8.40;;;;;;;8.16;100.00;100901.41;5017731;28;20033;-62
2022/09/30 02:24:08;;;;;;;10.75;7.38;;;;;;;8.13;100.00;100898.00;5027208;28;20026;-62
2022/09/30 02:26:37;;;;;;;12.02;7.30;;;;;;;8.11;100.00;100913.78;5025022;28;20034;-61
2022/09/30 02:29:09;;;;;;;9.90;7.50;;;;;;;8.09;100.00;100921.69;5027571;28;20083;-60
2022/09/30 02:31:37;;;;;;;15.50;8.32;;;;;;;8.05;100.00;100920.03;5027317;28;20025;-61
2022/09/30 02:34:16;;;;;;;9.00;7.45;;;;;;;8.00;100.00;100919.25;5026555;28;20021;-61
2022/09/30 02:36:42;;;;;;;10.77;8.15;;;;;;;7.95;100.00;100913.25;5020662;28;20041;-62
2022/09/30 02:39:17;;;;;;;11.63;7.57;;;;;;;7.91;100.00;100929.94;5023929;28;20226;-61
2022/09/30 02:41:51;;;;;;;14.27;7.90;;;;;;;7.86;100.00;100930.06;5023688;28;20036;-62
2022/09/30 02:44:17;;;;;;;12.45;7.65;;;;;;;7.81;100.00;100929.28;5026311;28;20495;-63
2022/09/30 02:46:56;;;;;;;14.27;8.75;;;;;;;7.82;100.00;100934.50;5026400;28;20029;-61
2022/09/30 02:49:53;;;;;;;10.48;7.75;;;;;;;7.84;100.00;100927.47;5059567;28;20034;-62
2022/09/30 02:52:30;;;;;;;9.70;7.00;;;;;;;7.84;100.00;100930.09;5009380;28;20045;-63
2022/09/30 02:55:17;;;;;;;12.43;8.23;;;;;;;7.84;100.00;100922.22;5006373;28;20174;-61
2022/09/30 02:57:56;;;;;;;12.20;7.97;;;;;;;7.83;100.00;100927.50;5019968;28;20037;-63
2022/09/30 03:00:22;;;;;;;11.40;8.17;;;;;;;7.82;100.00;100929.25;5026407;28;20025;-60
2022/09/30 03:02:49;;;;;;;10.82;7.60;;;;;;;7.80;100.00;100928.41;5026862;28;20025;-63
2022/09/30 03:05:16;;;;;;;11.95;8.02;;;;;;;7.79;100.00;100924.06;5027996;28;20297;-60
2022/09/30 03:07:41;;;;;;;11.27;7.70;;;;;;;7.76;100.00;100926.75;5027006;28;20036;-65
2022/09/30 03:10:15;;;;;;;9.98;8.13;;;;;;;7.73;100.00;100929.44;5026336;28;20041;-60
2022/09/30 03:13:01;;;;;;;13.98;8.48;;;;;;;7.70;100.00;100930.38;5026790;28;20029;-61
2022/09/30 03:15:26;;;;;;;13.00;7.53;;;;;;;7.72;100.00;100922.47;5026808;28;20391;-60
2022/09/30 03:18:06;;;;;;;11.55;7.53;;;;;;;7.73;100.00;100923.34;5027657;28;20034;-60
2022/09/30 03:20:53;;;;;;;14.05;7.72;;;;;;;7.72;100.00;100930.34;5026467;28;20116;-60
2022/09/30 03:23:35;;;;;;;12.13;7.53;;;;;;;7.71;100.00;100933.88;5027245;28;20079;-67
2022/09/30 03:26:27;;;;;;;11.43;8.57;;;;;;;7.68;100.00;100936.56;5023963;28;20043;-60
2022/09/30 03:29:16;;;;;;;10.50;7.63;;;;;;;7.68;100.00;100931.31;5021461;28;20053;-62
2022/09/30 03:32:00;;;;;;;13.20;8.20;;;;;;;7.65;100.00;100934.00;5026825;28;20055;-62
2022/09/30 03:34:32;;;;;;;10.75;7.70;;;;;;;7.62;100.00;100942.78;5026636;28;20080;-61
2022/09/30 03:37:01;;;;;;;12.43;7.68;;;;;;;7.61;100.00;100948.06;5024897;28;20022;-60
2022/09/30 03:39:52;;;;;;;11.50;7.47;;;;;;;7.56;100.00;100954.25;5026602;28;20029;-61
2022/09/30 03:42:40;;;;;;;10.80;7.40;;;;;;;7.58;100.00;100962.94;5025976;28;20029;-64
2022/09/30 03:45:27;;;;;;;9.98;7.45;;;;;;;7.60;100.00;100960.31;5025456;28;20036;-62
2022/09/30 03:47:55;;;;;;;12.55;7.82;;;;;;;7.57;100.00;100958.63;5025377;28;20044;-61
2022/09/30 03:50:22;;;;;;;9.53;6.90;;;;;;;7.58;100.00;100965.56;5024671;28;20022;-60
2022/09/30 03:52:48;;;;;;;10.75;8.18;;;;;;;7.57;100.00;100960.34;5025102;28;20835;-65
2022/09/30 03:55:14;;;;;;;13.73;9.35;;;;;;;7.62;100.00;100963.78;5023826;28;20097;-62
2022/09/30 03:57:41;;;;;;;12.82;8.82;;;;;;;7.65;100.00;100971.56;5026100;28;20063;-63
2022/09/30 04:00:07;;;;;;;12.27;8.57;;;;;;;7.63;100.00;100962.88;5026608;28;20029;-62
2022/09/30 04:02:35;;;;;;;13.07;8.15;;;;;;;7.65;100.00;100962.84;5025482;28;20064;-62
2022/09/30 04:05:00;;;;;;;12.68;8.55;;;;;;;7.66;100.00;100964.56;5019024;28;20113;-61
2022/09/30 04:07:26;;;;;;;12.57;8.38;;;;;;;7.63;100.00;100959.38;5021204;28;20555;-60
2022/09/30 04:09:51;;;;;;;12.75;8.57;;;;;;;7.64;100.00;100961.09;5028960;28;20496;-60
2022/09/30 04:12:17;;;;;;;12.00;8.73;;;;;;;7.61;100.00;100962.03;5029626;28;20476;-61
2022/09/30 04:14:42;;;;;;;11.90;8.40;;;;;;;7.63;100.00;100964.63;5028334;28;20463;-61
2022/09/30 04:17:07;;;;;;;10.95;7.93;;;;;;;7.60;100.00;100960.31;5028758;28;20018;-62
2022/09/30 04:19:37;;;;;;;13.27;8.55;;;;;;;7.60;100.00;100965.53;5029081;28;20020;-61
2022/09/30 04:22:02;;;;;;;10.98;7.72;;;;;;;7.59;100.00;100975.16;5029852;28;20014;-60
2022/09/30 04:24:28;;;;;;;12.13;7.78;;;;;;;7.56;100.00;100983.09;5029401;28;20490;-62
2022/09/30 04:26:53;;;;;;;10.85;7.65;;;;;;;7.51;100.00;100982.31;5028432;28;20034;-62
2022/09/30 04:29:19;;;;;;;9.95;7.65;;;;;;;7.44;100.00;100991.19;5029462;28;20084;-65
2022/09/30 04:31:44;;;;;;;14.70;8.73;;;;;;;7.39;100.00;100998.28;5029899;28;20032;-60
2022/09/30 04:34:10;;;;;;;11.55;7.30;;;;;;;7.36;100.00;100990.47;5028557;28;20021;-60
2022/09/30 04:36:35;;;;;;;11.80;8.73;;;;;;;7.36;100.00;100995.69;5028820;28;20520;-65
2022/09/30 04:39:00;;;;;;;13.60;8.77;;;;;;;7.32;100.00;100990.50;5028732;28;20022;-61
2022/09/30 04:41:26;;;;;;;12.35;8.40;;;;;;;7.31;100.00;101003.66;5027906;28;20065;-61
2022/09/30 04:43:51;;;;;;;14.05;9.32;;;;;;;7.29;100.00;101005.44;5029048;28;20026;-61
2022/09/30 04:46:19;;;;;;;15.77;9.10;;;;;;;7.27;100.00;100991.50;5029571;28;20143;-62
2022/09/30 04:48:45;;;;;;;14.63;9.15;;;;;;;7.28;100.00;100988.84;5030087;28;20029;-63
2022/09/30 04:51:16;;;;;;;13.73;8.93;;;;;;;7.28;100.00;100993.22;5029161;28;20030;-63
2022/09/30 04:53:42;;;;;;;12.25;8.30;;;;;;;7.30;100.00;100989.69;5029647;28;20456;-62
2022/09/30 04:56:07;;;;;;;16.27;8.48;;;;;;;7.28;100.00;100983.59;5060325;28;20730;-60
2022/09/30 04:58:33;;;;;;;13.60;8.15;;;;;;;7.30;100.00;100983.56;5028824;28;20049;-60
2022/09/30 05:01:02;;;;;;;11.27;8.07;;;;;;;7.30;100.00;100999.31;5027620;28;20033;-61
2022/09/30 05:03:27;;;;;;;;;;;;;;;7.30;100.00;101010.66;5029076;28;20088;-61
2022/09/30 05:05:53;;;;;;;11.82;8.23;;;;;;;7.29;100.00;101013.31;5030106;28;19917;-60
2022/09/30 05:08:18;;;;;;;14.57;8.30;;;;;;;7.24;100.00;101026.50;5029533;28;20075;-64
2022/09/30 05:10:45;;;;;;;14.18;8.57;;;;;;;7.22;100.00;101017.78;5029731;28;20033;-62
2022/09/30 05:13:11;;;;;;;13.00;9.32;;;;;;;7.22;100.00;101027.41;5029372;28;20464;-62
2022/09/30 05:15:36;;;;;;;14.63;9.00;;;;;;;7.20;100.00;101024.81;5031650;28;20049;-61
2022/09/30 05:18:01;;;;;;;15.70;9.32;;;;;;;7.19;100.00;101025.69;5031768;28;20018;-61
2022/09/30 05:20:27;;;;;;;18.58;9.75;;;;;;;7.19;100.00;101017.81;5030436;28;20534;-60
2022/09/30 05:22:54;;;;;;;22.13;10.40;;;;;;;7.24;100.00;101017.75;5029598;28;20471;-62
2022/09/30 05:25:19;;;;;;;17.23;10.63;;;;;;;7.25;100.00;101012.47;5043584;28;20025;-61
2022/09/30 05:27:47;;;;;;;14.82;10.82;;;;;;;7.28;100.00;101014.19;5025055;28;20484;-63
2022/09/30 05:30:13;;;;;;;15.27;10.80;;;;;;;7.31;100.00;101014.13;5009695;28;20087;-60
2022/09/30 05:32:38;;;;;;;16.95;9.82;;;;;;;7.32;100.00;101008.00;5010416;28;20042;-60
2022/09/30 05:35:04;;;;;;;19.77;11.07;;;;;;;7.37;100.00;101013.19;5015158;28;20036;-60
2022/09/30 05:37:29;;;;;;;18.92;11.13;;;;;;;7.37;100.00;101011.41;5028975;28;20037;-61
2022/09/30 05:39:55;;;;;;;20.20;11.52;;;;;;;7.39;100.00;101014.00;5027816;28;20060;-61
2022/09/30 05:42:20;;;;;;;22.20;11.77;;;;;;;7.40;100.00;101011.34;5028432;28;20033;-61
2022/09/30 05:44:46;;;;;;;19.70;11.90;;;;;;;7.41;100.00;101001.75;5028327;28;20025;-63
2022/09/30 05:47:11;;;;;;;25.45;13.02;;;;;;;7.44;100.00;101009.56;5029270;28;20037;-61
2022/09/30 05:49:38;;;;;;;17.38;12.07;;;;;;;7.44;100.00;101013.03;5028197;28;20412;-61
2022/09/30 05:52:04;;;;;;;18.88;11.98;;;;;;;7.46;100.00;101015.63;5028602;28;20038;-62
2022/09/30 05:54:30;;;;;;;21.38;13.00;;;;;;;7.49;100.00;101018.19;5024778;28;20013;-61
2022/09/30 05:56:55;;;;;;;21.25;13.48;;;;;;;7.50;100.00;101026.94;5028683;28;20040;-61
2022/09/30 05:59:21;;;;;;;23.75;13.50;;;;;;;7.48;100.00;101026.94;5027450;28;20025;-60
2022/09/30 06:01:46;;;;;;;29.08;14.25;;;;;;;7.51;100.00;101029.53;5029002;28;20029;-61
2022/09/30 06:04:11;;;;;;;23.92;14.90;;;;;;;7.55;100.00;101028.56;5029005;28;20029;-61
2022/09/30 06:06:37;;;;;;;29.70;15.18;;;;;;;7.61;100.00;101029.38;5025103;28;20118;-62
2022/09/30 06:09:03;;;;;;;31.67;16.67;;;;;;;7.68;100.00;101030.97;5027059;28;20052;-61
2022/09/30 06:11:28;;;;;;;36.08;17.02;;;;;;;7.74;100.00;101036.13;5026635;28;20059;-61
2022/09/30 06:13:53;;;;;;;42.30;17.02;;;;;;;7.81;100.00;101021.97;5027784;28;20029;-61
2022/09/30 06:16:19;;;;;;;40.15;20.25;;;;;;;7.94;100.00;101026.97;5026175;28;20017;-62
2022/09/30 06:18:44;;;;;;;41.75;22.00;;;;;;;8.05;100.00;101027.63;5027141;28;20026;-61
2022/09/30 06:21:12;;;;;;;37.50;19.13;;;;;;;8.11;100.00;101026.63;5026072;28;20021;-61
2022/09/30 06:23:38;;;;;;;40.33;18.90;;;;;;;8.21;100.00;101029.94;5026340;28;20098;-60
2022/09/30 06:26:05;;;;;;;38.45;20.63;;;;;;;8.27;100.00;101035.06;5024372;28;20025;-61
2022/09/30 06:28:34;;;;;;;38.88;19.42;;;;;;;8.37;100.00;101034.88;5026395;28;20030;-62
2022/09/30 06:31:03;;;;;;;45.45;21.40;;;;;;;8.48;100.00;101032.84;5024968;28;20061;-64
2022/09/30 06:33:28;;;;;;;45.72;22.63;;;;;;;8.55;100.00;101044.97;5025111;28;20032;-60
2022/09/30 06:35:54;;;;;;;41.85;21.50;;;;;;;8.67;100.00;101045.63;5024442;28;20030;-62
2022/09/30 06:38:21;;;;;;;44.35;22.92;;;;;;;8.78;100.00;101050.63;5024905;28;20068;-61
2022/09/30 06:40:49;;;;;;;48.03;23.70;;;;;;;8.95;100.00;101056.38;5024328;28;20071;-61
2022/09/30 06:43:17;;;;;;;48.22;25.00;;;;;;;9.14;100.00;101052.41;5025605;28;20021;-60
2022/09/30 06:45:47;;;;;;;53.85;26.27;;;;;;;9.32;100.00;101056.34;5025795;28;20021;-62
2022/09/30 06:48:12;;;;;;;54.35;27.50;;;;;;;9.54;100.00;101043.50;5026218;28;20037;-61
2022/09/30 06:50:39;;;;;;;52.40;29.05;;;;;;;9.83;100.00;101044.50;5024843;28;20026;-63
2022/09/30 06:53:06;;;;;;;52.08;27.33;;;;;;;10.04;100.00;101052.72;5025520;28;20104;-63
2022/09/30 06:55:32;;;;;;;47.08;26.55;;;;;;;10.18;100.00;101043.56;5025117;28;20607;-65
2022/09/30 06:57:57;;;;;;;50.03;26.88;;;;;;;10.44;100.00;101041.91;5025410;28;20116;-61
2022/09/30 07:00:24;;;;;;;45.28;26.17;;;;;;;10.52;100.00;101041.72;5026100;28;20013;-64
2022/09/30 07:02:49;;;;;;;46.45;23.13;;;;;;;10.64;100.00;101049.25;5023440;28;20025;-63
2022/09/30 07:05:16;;;;;;;37.13;23.58;;;;;;;10.71;100.00;101047.28;5021520;28;20497;-65
2022/09/30 07:07:42;;;;;;;33.63;21.15;;;;;;;10.81;100.00;101051.34;5021295;28;20041;-65
2022/09/30 07:10:09;;;;;;;32.55;21.55;;;;;;;10.94;100.00;101061.50;5020664;28;20273;-63
2022/09/30 07:12:34;;;;;;;38.28;21.83;;;;;;;11.10;100.00;101052.19;5025740;28;20029;-63
2022/09/30 07:15:00;;;;;;;30.83;19.80;;;;;;;11.16;100.00;101055.53;5026049;28;20064;-65
2022/09/30 07:17:26;;;;;;;28.10;17.85;;;;;;;11.23;100.00;101049.16;5023065;28;20026;-65
2022/09/30 07:19:51;;;;;;;29.15;17.58;;;;;;;11.25;100.00;101044.69;5025664;28;20014;-64
2022/09/30 07:22:28;;;;;;;26.35;16.92;;;;;;;11.28;100.00;101043.69;5025623;28;20021;-63
2022/09/30 07:24:57;;;;;;;25.42;16.83;;;;;;;11.28;100.00;101034.03;5022724;28;20492;-63
2022/09/30 07:27:23;;;;;;;22.65;15.68;;;;;;;11.28;100.00;101039.31;5025279;28;20036;-64
2022/09/30 07:29:48;;;;;;;23.23;15.07;;;;;;;11.26;100.00;101041.16;5025108;28;20488;-63
2022/09/30 07:32:14;;;;;;;23.20;15.30;;;;;;;11.25;100.00;101031.50;5025988;28;20108;-63
2022/09/30 07:34:41;;;;;;;22.90;14.95;;;;;;;11.28;100.00;101028.75;5026552;28;20033;-62
2022/09/30 07:37:08;;;;;;;26.80;15.23;;;;;;;11.27;100.00;101028.81;5025291;28;20022;-63
2022/09/30 07:39:34;;;;;;;24.55;15.70;;;;;;;11.38;100.00;101024.88;5024868;28;20026;-63
2022/09/30 07:42:00;;;;;;;22.15;15.07;;;;;;;11.44;100.00;101030.88;5025986;28;20033;-63
2022/09/30 07:44:27;;;;;;;21.55;14.35;;;;;;;11.55;100.00;101030.47;5027725;28;20041;-62
2022/09/30 07:46:53;;;;;;;21.27;13.55;;;;;;;11.67;100.00;101029.19;5029788;28;20029;-63
2022/09/30 07:49:28;;;;;;;18.70;13.57;;;;;;;11.74;100.00;101028.06;5027957;28;20031;-62
2022/09/30 07:51:58;;;;;;;22.10;14.02;;;;;;;11.85;100.00;101028.53;5027024;28;20029;-62
2022/09/30 07:54:27;;;;;;;26.10;12.70;;;;;;;11.91;100.00;101021.28;5027482;28;20026;-63
2022/09/30 07:56:52;;;;;;;17.73;12.75;;;;;;;11.93;100.00;101016.84;5028803;28;20068;-60
2022/09/30 07:59:18;;;;;;;19.08;12.10;;;;;;;12.00;100.00;101015.69;5029460;28;20113;-63
2022/09/30 08:01:44;;;;;;;13.55;10.88;;;;;;;12.19;100.00;101028.25;5028663;28;20357;-62
2022/09/30 08:04:11;;;;;;;15.73;10.73;;;;;;;12.28;100.00;101019.94;5029826;28;20112;-64
2022/09/30 08:06:39;;;;;;;13.93;9.55;;;;;;;12.44;100.00;101022.03;5028155;28;20025;-64
2022/09/30 08:09:05;;;;;;;10.23;8.35;;;;;;;12.58;100.00;101022.31;5027513;28;20030;-64
2022/09/30 08:11:35;;;;;;;10.60;8.38;;;;;;;12.69;100.00;101034.25;5025073;28;20593;-63
2022/09/30 08:14:00;;;;;;;10.30;7.97;;;;;;;12.78;100.00;101036.53;5033755;28;20033;-60
2022/09/30 08:16:26;;;;;;;9.65;7.65;;;;;;;12.87;100.00;101027.38;5048012;28;20388;-64
2022/09/30 08:18:58;;;;;;;10.70;7.90;;;;;;;12.91;100.00;101021.03;5048133;28;20053;-62
2022/09/30 08:21:24;;;;;;;9.57;7.13;;;;;;;13.02;100.00;101029.41;5047341;28;20029;-64
2022/09/30 08:23:49;;;;;;;13.20;6.88;;;;;;;13.16;100.00;101035.91;5028889;28;20083;-62
2022/09/30 08:26:15;;;;;;;12.55;7.03;;;;;;;13.32;100.00;101030.81;5027510;28;20108;-63
2022/09/30 08:28:41;;;;;;;12.05;6.47;;;;;;;13.26;100.00;101028.44;5028706;28;20120;-62
2022/09/30 08:31:11;;;;;;;6.30;5.68;;;;;;;13.42;100.00;101031.28;5028875;28;20108;-62
2022/09/30 08:33:37;;;;;;;9.25;6.03;;;;;;;13.55;100.00;101030.78;5026357;28;20094;-62
2022/09/30 08:36:04;;;;;;;7.13;5.70;;;;;;;13.45;100.00;101028.50;5028702;28;20033;-62
2022/09/30 08:38:30;;;;;;;6.10;5.10;;;;;;;13.63;99.80;101026.88;5026164;28;20021;-61
2022/09/30 08:41:08;;;;;;;9.02;5.05;;;;;;;13.75;99.19;101040.50;5027776;28;20423;-61
2022/09/30 08:43:42;;;;;;;7.90;4.55;;;;;;;13.84;98.45;101040.09;5029065;28;20542;-64
2022/09/30 08:46:33;;;;;;;11.52;4.57;;;;;;;13.90;97.35;101033.66;5026861;28;20049;-63
2022/09/30 08:49:32;;;;;;;7.90;4.43;;;;;;;14.00;96.89;101034.13;5006639;28;20045;-62
2022/09/30 08:51:59;;;;;;;5.13;3.78;;;;;;;14.05;95.95;101028.63;5029203;28;20530;-62
2022/09/30 08:54:29;;;;;;;6.18;3.80;;;;;;;14.02;96.29;101026.94;5025950;28;20598;-63
2022/09/30 08:56:55;;;;;;;6.85;3.78;;;;;;;14.11;95.93;101029.19;5028957;28;20384;-63
2022/09/30 08:59:25;;;;;;;4.70;3.42;;;;;;;14.17;95.48;101032.50;5026872;28;20051;-61
2022/09/30 09:01:52;;;;;;;4.60;3.20;;;;;;;14.33;95.13;101035.28;5028948;28;20121;-62
2022/09/30 09:04:18;;;;;;;4.28;2.80;;;;;;;14.42;94.65;101040.13;5028354;28;20025;-63
2022/09/30 09:07:25;;;;;;;3.50;2.60;;;;;;;14.45;93.57;101033.84;5019377;28;20404;-62
2022/09/30 09:10:32;;;;;;;7.30;3.22;;;;;;;14.62;93.47;101043.63;4985296;28;20050;-62
2022/09/30 09:13:22;;;;;;;4.20;2.90;;;;;;;14.72;92.58;101036.97;5027619;28;20083;-62
2022/09/30 09:16:10;;;;;;;5.45;2.90;;;;;;;14.85;91.24;101039.06;5019095;28;20108;-62
2022/09/30 09:18:48;;;;;;;4.63;2.42;;;;;;;14.91;91.78;101033.47;5010368;28;20049;-63
2022/09/30 09:21:38;;;;;;;2.45;2.08;;;;;;;14.95;90.50;101042.09;5027533;28;20083;-64
2022/09/30 09:24:12;;;;;;;2.70;1.50;;;;;;;15.02;88.43;101039.06;5026488;28;20025;-63
2022/09/30 09:26:38;;;;;;;1.70;1.60;;;;;;;15.06;86.91;101039.81;5026944;28;20048;-62
2022/09/30 09:29:24;;;;;;;2.30;1.60;;;;;;;15.14;86.51;101042.06;5027274;28;20029;-62
2022/09/30 09:31:50;;;;;;;3.28;1.80;;;;;;;15.24;86.66;101034.50;5029233;28;20025;-61
2022/09/30 09:34:15;;;;;;;2.33;1.55;;;;;;;15.29;86.81;101035.09;5026711;28;20431;-62
2022/09/30 09:37:02;;;;;;;2.00;1.58;;;;;;;15.38;86.65;101039.13;5023878;28;20376;-62
2022/09/30 09:39:52;;;;;;;3.42;1.50;;;;;;;15.47;85.54;101032.47;5020928;28;20021;-62
2022/09/30 09:42:39;;;;;;;4.00;1.65;;;;;;;15.36;84.84;101027.72;5025888;28;20453;-64
2022/09/30 09:45:34;;;;;;;2.40;1.50;;;;;;;15.53;84.34;101030.34;5025469;28;20041;-63
2022/09/30 09:48:00;;;;;;;4.63;1.60;;;;;;;15.60;83.92;101030.03;5023556;28;20056;-61
2022/09/30 09:50:38;;;;;;;1.95;1.00;;;;;;;15.65;81.92;101034.16;5026713;28;20052;-63
2022/09/30 09:53:27;;;;;;;1.30;1.20;;;;;;;15.80;81.68;101034.28;5024471;28;20356;-63
2022/09/30 09:55:54;;;;;;;1.08;1.00;;;;;;;15.85;81.33;101034.91;5024060;28;20028;-63
2022/09/30 09:58:20;;;;;;;2.63;1.35;;;;;;;15.86;81.21;101022.50;5023945;28;20487;-63
2022/09/30 10:03:23;;;;;;;3.92;0.95;;;;;;;15.96;80.02;101028.16;5024657;28;20051;-62
2022/09/30 10:06:02;;;;;;;2.50;1.05;;;;;;;16.06;80.19;101028.53;5022469;28;20428;-65
2022/09/30 10:08:30;;;;;;;2.38;1.23;;;;;;;16.15;80.46;101028.06;5023337;28;20044;-64
2022/09/30 10:10:58;;;;;;;1.55;1.00;;;;;;;16.17;79.53;101035.00;5019828;28;20483;-65
2022/09/30 10:13:30;;;;;;;1.60;0.80;;;;;;;16.18;77.66;101038.53;5025801;28;20403;-65
2022/09/30 10:15:59;;;;;;;1.08;0.80;;;;;;;16.19;76.69;101029.59;5027392;28;20347;-64
2022/09/30 10:18:33;;;;;;;1.23;0.85;;;;;;;16.32;77.32;101029.78;5026736;28;20620;-62
2022/09/30 10:21:01;;;;;;;1.15;0.90;;;;;;;16.34;78.18;101022.56;5026079;28;20349;-63
2022/09/30 10:23:30;;;;;;;1.52;1.08;;;;;;;16.41;78.38;101031.91;5024654;28;20380;-64
2022/09/30 10:26:09;;;;;;;1.80;1.08;;;;;;;16.53;77.10;101037.53;5025580;28;20029;-64
2022/09/30 10:28:44;;;;;;;1.63;0.82;;;;;;;16.52;75.40;101031.31;5026028;28;20040;-64
2022/09/30 10:31:24;;;;;;;1.33;0.70;;;;;;;16.61;74.35;101029.94;5026080;28;20061;-63
2022/09/30 10:34:12;;;;;;;1.02;0.63;;;;;;;16.71;74.30;101024.97;5028105;28;20030;-64
2022/09/30 10:36:40;;;;;;;1.00;0.90;;;;;;;16.86;74.51;101027.69;5023634;28;20034;-62
2022/09/30 10:39:22;;;;;;;3.00;0.98;;;;;;;16.86;73.69;101033.03;5025597;28;20272;-63
2022/09/30 10:41:48;;;;;;;1.35;0.80;;;;;;;16.93;74.33;101021.94;5024938;28;20033;-64
2022/09/30 10:44:21;;;;;;;1.23;0.80;;;;;;;17.03;75.57;101034.69;5026619;28;20167;-63
2022/09/30 10:46:48;;;;;;;1.23;1.13;;;;;;;16.71;78.53;101030.31;5025503;28;20067;-63
2022/09/30 10:49:36;;;;;;;2.83;1.10;;;;;;;16.84;78.38;101030.44;5026942;28;20021;-64
2022/09/30 10:52:02;;;;;;;1.52;1.02;;;;;;;16.93;78.20;101024.59;5059862;28;20120;-63
2022/09/30 10:54:51;;;;;;;1.60;1.10;;;;;;;17.09;78.05;101015.72;5027717;28;20100;-63
2022/09/30 10:57:23;;;;;;;3.00;1.05;;;;;;;17.25;79.09;101026.31;5024971;28;20030;-67
2022/09/30 10:59:52;;;;;;;3.28;1.20;;;;;;;17.55;77.77;101013.94;5028141;28;20057;-64
2022/09/30 11:02:38;;;;;;;2.53;1.30;;;;;;;17.70;76.88;101016.63;5026812;28;20549;-65
2022/09/30 11:05:19;;;;;;;3.33;1.20;;;;;;;18.11;75.54;101017.66;5027269;28;20038;-63
2022/09/30 11:08:00;;;;;;;4.10;1.13;;;;;;;18.38;74.20;101000.84;5010220;28;20037;-64
2022/09/30 11:10:44;;;;;;;3.58;1.20;;;;;;;18.38;72.73;101007.06;5026417;28;20096;-64
2022/09/30 11:13:37;;;;;;;3.10;1.17;;;;;;;18.89;71.01;101008.22;5024000;28;20025;-65
2022/09/30 11:16:08;;;;;;;2.13;1.23;;;;;;;19.07;68.77;100999.94;5008225;28;20558;-64
2022/09/30 11:18:57;;;;;;;2.00;1.02;;;;;;;19.09;68.02;100995.38;5030368;28;20029;-63
2022/09/30 11:21:25;;;;;;;;;;;;;;;19.19;67.40;101012.50;5063069;28;20037;-64
2022/09/30 11:24:01;;;;;;;1.45;1.08;;;;;;;19.07;68.66;101010.59;5030759;28;20394;-63
2022/09/30 11:26:31;;;;;;;1.33;1.23;;;;;;;18.66;68.75;101012.44;5027177;28;20025;-62
2022/09/30 11:29:02;;;;;;;2.35;1.60;;;;;;;18.02;72.27;101011.06;5030824;28;20022;-64
2022/09/30 11:31:48;;;;;;;5.60;2.03;;;;;;;17.72;72.98;100996.91;5030838;28;20451;-65
2022/09/30 11:34:51;;;;;;;2.00;1.70;;;;;;;17.75;73.57;100994.06;5027079;28;20024;-63
2022/09/30 11:37:54;;;;;;;2.85;2.20;;;;;;;18.13;73.74;100997.97;5029996;28;20046;-63
2022/09/30 11:40:29;;;;;;;8.38;2.92;;;;;;;18.19;72.66;100992.22;5028115;28;20079;-63